createdAt,value
2024-01-05T00:00:36.814Z,8.20
2024-01-05T00:03:03.691Z,8.40
2024-01-05T00:05:30.217Z,8.50
2024-01-05T00:07:56.656Z,7.28
2024-01-05T00:10:23.364Z,7.72
2024-01-05T00:12:49.791Z,8.18
2024-01-05T00:15:16.432Z,7.38
2024-01-05T00:17:42.956Z,7.20
2024-01-05T00:20:10.124Z,7.72
2024-01-05T00:22:36.580Z,6.32
2024-01-05T00:25:04.357Z,7.10
2024-01-05T00:27:31.323Z,7.55
2024-01-05T00:29:58.012Z,7.88
2024-01-05T00:32:24.442Z,6.85
2024-01-05T00:34:51.107Z,8.15
2024-01-05T00:37:17.640Z,6.85
2024-01-05T00:39:44.160Z,6.30
2024-01-05T00:42:11.471Z,6.80
2024-01-05T00:44:38.031Z,5.75
2024-01-05T00:47:04.644Z,7.50
2024-01-05T00:49:31.239Z,6.78
2024-01-05T00:51:57.855Z,5.93
2024-01-05T00:54:26.398Z,6.15
2024-01-05T00:56:52.983Z,5.63
2024-01-05T00:59:20.705Z,4.97
2024-01-05T01:01:47.756Z,6.65
2024-01-05T01:04:15.655Z,6.63
2024-01-05T01:06:42.320Z,6.35
2024-01-05T01:09:09.280Z,5.80
2024-01-05T01:11:35.758Z,5.40
2024-01-05T01:14:02.186Z,5.18
2024-01-05T01:16:28.878Z,6.65
2024-01-05T01:18:55.594Z,6.65
2024-01-05T01:21:22.183Z,7.85
2024-01-05T01:23:48.619Z,5.93
2024-01-05T01:26:15.068Z,5.80
2024-01-05T01:28:41.425Z,5.93
2024-01-05T01:31:07.996Z,5.28
2024-01-05T01:33:34.788Z,6.45
2024-01-05T01:36:01.359Z,6.13
2024-01-05T01:38:27.760Z,6.35
2024-01-05T01:40:56.994Z,5.68
2024-01-05T01:43:26.412Z,5.68
2024-01-05T01:45:54.336Z,6.05
2024-01-05T01:48:21.678Z,6.80
2024-01-05T01:50:50.558Z,5.43
2024-01-05T01:53:21.085Z,7.25
2024-01-05T01:55:49.950Z,7.18
2024-01-05T01:58:20.779Z,8.07
2024-01-05T02:00:47.485Z,6.97
2024-01-05T02:03:18.553Z,7.10
2024-01-05T02:05:47.323Z,8.52
2024-01-05T02:08:14.214Z,6.95
2024-01-05T02:10:42.143Z,7.68
2024-01-05T02:13:08.973Z,8.02
2024-01-05T02:15:35.444Z,8.13
2024-01-05T02:18:12.975Z,9.13
2024-01-05T02:20:39.581Z,8.25
2024-01-05T02:23:12.860Z,8.43
2024-01-05T02:25:40.429Z,7.82
2024-01-05T02:28:06.795Z,9.10
2024-01-05T02:30:33.237Z,8.27
2024-01-05T02:32:59.797Z,10.52
2024-01-05T02:35:26.407Z,9.00
2024-01-05T02:37:52.863Z,9.70
2024-01-05T02:40:19.447Z,9.38
2024-01-05T02:42:45.979Z,9.10
2024-01-05T02:45:12.587Z,8.73
2024-01-05T02:47:39.099Z,9.45
2024-01-05T02:50:06.190Z,8.27
2024-01-05T02:52:32.651Z,9.00
2024-01-05T02:54:59.037Z,8.45
2024-01-05T02:57:25.514Z,8.73
2024-01-05T02:59:51.941Z,8.20
2024-01-05T03:02:18.368Z,9.00
2024-01-05T03:04:45.208Z,9.40
2024-01-05T03:07:11.766Z,8.10
2024-01-05T03:09:38.322Z,8.15
2024-01-05T03:12:05.146Z,9.02
2024-01-05T03:14:31.619Z,8.07
2024-01-05T03:16:58.001Z,8.60
2024-01-05T03:19:24.638Z,8.07
2024-01-05T03:21:51.272Z,6.60
2024-01-05T03:24:17.799Z,6.85
2024-01-05T03:26:45.092Z,8.00
2024-01-05T03:29:11.736Z,7.47
2024-01-05T03:31:38.309Z,6.93
2024-01-05T03:34:05.314Z,7.63
2024-01-05T03:36:31.960Z,7.15
2024-01-05T03:38:59.007Z,7.53
2024-01-05T03:41:25.492Z,7.55
2024-01-05T03:43:51.915Z,7.07
2024-01-05T03:46:18.357Z,7.30
2024-01-05T03:48:44.958Z,5.65
2024-01-05T03:51:11.538Z,5.60
2024-01-05T03:53:37.991Z,6.82
2024-01-05T03:56:04.966Z,5.75
2024-01-05T03:58:31.476Z,6.20
2024-01-05T04:00:57.994Z,6.50
2024-01-05T04:03:25.094Z,6.40
2024-01-05T04:05:51.629Z,5.35
2024-01-05T04:08:18.208Z,6.15
2024-01-05T04:10:44.661Z,5.00
2024-01-05T04:13:11.130Z,6.18
2024-01-05T04:15:38.969Z,5.43
2024-01-05T04:18:06.653Z,5.90
2024-01-05T04:20:34.043Z,5.93
2024-01-05T04:23:01.533Z,6.80
2024-01-05T04:25:27.977Z,5.07
2024-01-05T04:27:54.410Z,6.05
2024-01-05T04:30:25.381Z,4.28
2024-01-05T04:32:52.215Z,4.70
2024-01-05T04:35:18.723Z,4.68
2024-01-05T04:37:45.223Z,4.40
2024-01-05T04:40:12.139Z,4.43
2024-01-05T04:42:38.745Z,3.63
2024-01-05T04:45:05.584Z,3.38
2024-01-05T04:47:33.068Z,3.05
2024-01-05T04:49:59.654Z,3.50
2024-01-05T04:52:26.269Z,3.17
2024-01-05T04:54:52.708Z,2.08
2024-01-05T04:57:19.229Z,3.35
2024-01-05T04:59:45.652Z,1.77
2024-01-05T05:02:12.107Z,2.78
2024-01-05T05:04:38.473Z,2.45
2024-01-05T05:07:05.442Z,3.00
2024-01-05T05:09:31.848Z,2.40
2024-01-05T05:11:58.369Z,1.73
2024-01-05T05:14:24.824Z,2.75
2024-01-05T05:16:51.426Z,2.22
2024-01-05T05:19:18.046Z,1.20
2024-01-05T05:21:44.838Z,1.38
2024-01-05T05:24:12.765Z,1.63
2024-01-05T05:26:39.189Z,1.15
2024-01-05T05:29:05.637Z,1.10
2024-01-05T05:31:32.161Z,1.50
2024-01-05T05:33:58.746Z,0.98
2024-01-05T05:36:25.486Z,1.27
2024-01-05T05:38:51.984Z,1.00
2024-01-05T05:41:18.449Z,1.30
2024-01-05T05:43:46.926Z,1.35
2024-01-05T05:46:13.446Z,1.92
2024-01-05T05:48:40.028Z,1.17
2024-01-05T05:51:06.585Z,1.63
2024-01-05T05:53:33.047Z,0.60
2024-01-05T05:55:59.487Z,0.80
2024-01-05T05:58:27.312Z,1.55
2024-01-05T06:00:53.775Z,1.00
2024-01-05T06:03:20.366Z,1.33
2024-01-05T06:05:46.818Z,1.00
2024-01-05T06:08:13.252Z,1.10
2024-01-05T06:10:39.666Z,1.38
2024-01-05T06:13:06.248Z,0.65
2024-01-05T06:15:32.921Z,0.88
2024-01-05T06:17:59.444Z,1.85
2024-01-05T06:20:26.208Z,0.40
2024-01-05T06:22:52.771Z,0.70
2024-01-05T06:25:19.227Z,0.60
2024-01-05T06:27:45.719Z,0.70
2024-01-05T06:30:12.536Z,0.70
2024-01-05T06:32:42.057Z,1.33
2024-01-05T06:35:08.857Z,0.75
2024-01-05T06:37:35.642Z,1.23
2024-01-05T06:40:02.074Z,0.70
2024-01-05T06:42:28.738Z,0.63
2024-01-05T06:44:55.287Z,0.88
2024-01-05T06:47:21.872Z,1.52
2024-01-05T06:49:48.574Z,0.93
2024-01-05T06:52:15.287Z,0.63
2024-01-05T06:54:41.729Z,0.98
2024-01-05T06:57:08.477Z,0.80
2024-01-05T06:59:37.437Z,0.70
2024-01-05T07:02:04.087Z,0.70
2024-01-05T07:04:30.501Z,0.80
2024-01-05T07:06:57.588Z,1.05
2024-01-05T07:09:24.310Z,0.85
2024-01-05T07:11:51.485Z,0.77
2024-01-05T07:14:18.899Z,1.00
2024-01-05T07:16:45.291Z,0.65
2024-01-05T07:19:11.820Z,1.00
2024-01-05T07:21:48.348Z,0.82
2024-01-05T07:24:16.587Z,0.73
2024-01-05T07:26:43.983Z,0.85
2024-01-05T07:29:10.570Z,0.47
2024-01-05T07:31:37.189Z,0.60
2024-01-05T07:34:04.209Z,0.57
2024-01-05T07:36:30.879Z,0.88
2024-01-05T07:39:00.341Z,0.70
2024-01-05T07:41:29.925Z,0.75
2024-01-05T07:43:56.635Z,1.20
2024-01-05T07:46:26.686Z,0.43
2024-01-05T07:48:53.309Z,1.10
2024-01-05T07:51:20.672Z,0.60
2024-01-05T07:53:49.593Z,0.70
2024-01-05T07:56:18.358Z,0.75
2024-01-05T07:58:47.933Z,1.40
2024-01-05T08:01:18.412Z,0.57
2024-01-05T08:03:45.823Z,0.57
2024-01-05T08:06:20.106Z,0.60
2024-01-05T08:08:48.066Z,0.55
2024-01-05T08:11:15.247Z,0.35
2024-01-05T08:13:43.305Z,1.05
2024-01-05T08:16:10.857Z,0.30
2024-01-05T08:18:38.088Z,0.20
2024-01-05T08:21:05.118Z,0.22
2024-01-05T08:23:33.070Z,0.20
2024-01-05T08:25:59.920Z,0.20
2024-01-05T08:28:27.171Z,0.30
2024-01-05T08:30:57.338Z,0.63
2024-01-05T08:33:24.380Z,0.22
2024-01-05T08:35:51.056Z,0.20
2024-01-05T08:38:17.521Z,0.10
2024-01-05T08:40:45.617Z,0.40
2024-01-05T08:43:12.089Z,0.30
2024-01-05T08:45:38.573Z,0.28
2024-01-05T08:48:06.495Z,0.20
2024-01-05T08:50:33.384Z,0.40
2024-01-05T08:52:59.877Z,0.32
2024-01-05T08:55:26.385Z,0.28
2024-01-05T08:57:52.853Z,0.20
2024-01-05T09:00:20.195Z,0.20
2024-01-05T09:02:46.908Z,0.20
2024-01-05T09:05:13.527Z,0.10
2024-01-05T09:07:40.023Z,0.28
2024-01-05T09:10:09.324Z,0.20
2024-01-05T09:12:36.241Z,0.22
2024-01-05T09:15:03.136Z,0.38
2024-01-05T09:17:30.176Z,0.20
2024-01-05T09:19:56.723Z,0.20
2024-01-05T09:22:23.907Z,0.20
2024-01-05T09:24:50.351Z,0.10
2024-01-05T09:27:16.799Z,0.10
2024-01-05T09:29:43.257Z,0.20
2024-01-05T09:32:10.082Z,0.20
2024-01-05T09:34:36.931Z,0.80
2024-01-05T09:37:03.513Z,0.40
2024-01-05T09:39:29.999Z,0.57
2024-01-05T09:41:56.604Z,0.43
2024-01-05T09:44:23.698Z,0.25
2024-01-05T09:46:50.828Z,0.30
2024-01-05T09:49:18.355Z,0.38
2024-01-05T09:51:45.979Z,0.40
2024-01-05T09:54:13.922Z,0.32
2024-01-05T09:56:41.214Z,0.30
2024-01-05T09:59:08.769Z,0.20
2024-01-05T10:01:38.208Z,0.35
2024-01-05T10:04:05.009Z,0.20
2024-01-05T10:06:32.142Z,0.20
2024-01-05T10:09:00.139Z,0.30
2024-01-05T10:11:34.264Z,0.10
2024-01-05T10:14:06.673Z,0.28
2024-01-05T10:16:40.397Z,0.30
2024-01-05T10:19:13.840Z,0.57
2024-01-05T10:21:45.329Z,0.30
2024-01-05T10:24:30.625Z,0.70
2024-01-05T10:27:03.700Z,0.40
2024-01-05T10:29:33.334Z,0.30
2024-01-05T10:32:19.728Z,0.50
2024-01-05T10:34:47.969Z,0.80
2024-01-05T10:37:15.749Z,0.47
2024-01-05T10:39:52.764Z,0.40
2024-01-05T10:42:27.980Z,0.35
2024-01-05T10:44:56.651Z,0.73
2024-01-05T10:47:25.214Z,0.43
2024-01-05T10:49:53.348Z,0.57
2024-01-05T10:52:21.715Z,0.68
2024-01-05T10:54:50.112Z,0.60
2024-01-05T10:57:18.341Z,0.28
2024-01-05T10:59:52.089Z,0.57
2024-01-05T11:02:28.926Z,0.65
2024-01-05T11:05:08.855Z,0.50
2024-01-05T11:07:36.240Z,0.90
2024-01-05T11:10:22.129Z,0.63
2024-01-05T11:13:13.457Z,0.95
2024-01-05T11:16:05.150Z,0.98
2024-01-05T11:18:59.574Z,0.65
2024-01-05T11:21:47.827Z,0.38
2024-01-05T11:24:18.204Z,0.50
2024-01-05T11:29:13.887Z,0.40
2024-01-05T11:31:46.294Z,0.50
2024-01-05T11:34:38.208Z,0.32
2024-01-05T11:37:08.253Z,0.55
2024-01-05T11:39:46.710Z,0.50
2024-01-05T11:42:42.555Z,0.70
2024-01-05T11:45:12.796Z,0.57
2024-01-05T11:47:46.487Z,0.57
2024-01-05T11:50:34.636Z,0.70
2024-01-05T11:53:14.622Z,0.70
2024-01-05T11:55:54.766Z,0.57
2024-01-05T11:58:28.665Z,0.43
2024-01-05T12:00:57.339Z,0.43
2024-01-05T12:03:25.998Z,0.82
2024-01-05T12:05:57.231Z,0.50
2024-01-05T12:08:24.786Z,0.80
2024-01-05T12:10:56.032Z,0.60
2024-01-05T12:13:25.874Z,0.60
2024-01-05T12:16:01.133Z,0.80
2024-01-05T12:18:37.058Z,1.52
2024-01-05T12:21:07.376Z,0.82
2024-01-05T12:23:35.225Z,1.08
2024-01-05T12:26:06.596Z,1.17
2024-01-05T12:28:42.931Z,1.40
2024-01-05T12:31:11.585Z,1.48
2024-01-05T12:33:39.862Z,1.70
2024-01-05T12:36:11.255Z,1.50
2024-01-05T12:38:38.195Z,1.30
2024-01-05T12:41:15.457Z,1.50
2024-01-05T12:43:45.556Z,1.65
2024-01-05T12:46:12.047Z,1.48
2024-01-05T12:48:39.194Z,1.92
2024-01-05T12:51:19.942Z,1.50
2024-01-05T12:53:50.503Z,1.83
2024-01-05T12:56:21.500Z,1.70
2024-01-05T12:58:48.503Z,1.10
2024-01-05T13:01:22.525Z,1.50
2024-01-05T13:03:56.463Z,1.20
2024-01-05T13:06:25.732Z,1.63
2024-01-05T13:08:52.643Z,2.30
2024-01-05T13:11:21.272Z,1.48
2024-01-05T13:13:52.046Z,1.58
2024-01-05T13:16:19.135Z,1.90
2024-01-05T13:18:46.036Z,1.77
2024-01-05T13:21:12.701Z,2.35
2024-01-05T13:23:41.491Z,2.15
2024-01-05T13:26:08.186Z,2.53
2024-01-05T13:28:38.203Z,2.42
2024-01-05T13:31:05.408Z,2.28
2024-01-05T13:33:33.269Z,2.42
2024-01-05T13:36:00.057Z,2.53
2024-01-05T13:38:26.607Z,2.20
2024-01-05T13:40:53.099Z,2.53
2024-01-05T13:43:19.663Z,2.05
2024-01-05T13:45:47.396Z,1.83
2024-01-05T13:48:13.931Z,2.53
2024-01-05T13:50:40.454Z,1.65
2024-01-05T13:53:12.197Z,1.77
2024-01-05T13:55:38.720Z,1.90
2024-01-05T13:58:05.248Z,1.65
2024-01-05T14:00:31.750Z,2.08
2024-01-05T14:02:58.270Z,1.73
2024-01-05T14:05:24.876Z,1.73
2024-01-05T14:07:51.256Z,2.08
2024-01-05T14:10:17.692Z,1.40
2024-01-05T14:12:44.201Z,2.50
2024-01-05T14:15:14.990Z,1.45
2024-01-05T14:17:41.647Z,1.83
2024-01-05T14:20:09.970Z,1.63
2024-01-05T14:22:36.714Z,2.28
2024-01-05T14:25:05.382Z,1.60
2024-01-05T14:27:31.808Z,1.52
2024-01-05T14:29:58.209Z,1.33
2024-01-05T14:32:25.090Z,1.63
2024-01-05T14:34:51.749Z,1.90
2024-01-05T14:37:18.189Z,2.08
2024-01-05T14:39:44.754Z,1.30
2024-01-05T14:42:11.243Z,1.60
2024-01-05T14:44:37.779Z,1.35
2024-01-05T14:47:04.872Z,2.22
2024-01-05T14:49:32.000Z,1.55
2024-01-05T14:52:01.243Z,1.73
2024-01-05T14:54:28.512Z,2.28
2024-01-05T14:56:55.375Z,1.75
2024-01-05T14:59:25.036Z,2.08
2024-01-05T15:01:51.507Z,1.90
2024-01-05T15:04:18.138Z,2.88
2024-01-05T15:06:44.729Z,1.38
2024-01-05T15:09:13.008Z,1.23
2024-01-05T15:11:39.678Z,1.88
2024-01-05T15:14:06.209Z,8.27
2024-01-05T15:16:42.054Z,2.13
2024-01-05T15:19:09.026Z,1.33
2024-01-05T15:21:35.914Z,1.00
2024-01-05T15:24:02.835Z,1.20
2024-01-05T15:26:29.316Z,0.90
2024-01-05T15:28:55.765Z,0.90
2024-01-05T15:31:22.578Z,1.00
2024-01-05T15:33:50.599Z,0.68
2024-01-05T15:36:18.623Z,0.85
2024-01-05T15:38:46.169Z,0.65
2024-01-05T15:41:13.467Z,0.50
2024-01-05T15:43:40.742Z,1.45
2024-01-05T15:46:09.765Z,1.00
2024-01-05T15:48:36.773Z,0.40
2024-01-05T15:51:03.492Z,0.40
2024-01-05T15:53:30.011Z,0.50
2024-01-05T15:55:59.057Z,0.82
2024-01-05T15:58:26.010Z,0.50
2024-01-05T16:00:52.575Z,0.30
2024-01-05T16:03:19.169Z,0.80
2024-01-05T16:05:45.773Z,0.40
2024-01-05T16:08:12.374Z,0.38
2024-01-05T16:10:38.862Z,0.80
2024-01-05T16:13:07.174Z,0.40
2024-01-05T16:15:33.762Z,0.90
2024-01-05T16:18:00.829Z,0.95
2024-01-05T16:20:27.412Z,1.33
2024-01-05T16:22:54.050Z,1.35
2024-01-05T16:25:20.470Z,0.88
2024-01-05T16:27:47.018Z,2.05
2024-01-05T16:30:14.898Z,1.98
2024-01-05T16:32:43.617Z,1.95
2024-01-05T16:35:10.563Z,3.03
2024-01-05T16:37:38.480Z,3.00
2024-01-05T16:40:06.894Z,2.95
2024-01-05T16:42:33.379Z,3.55
2024-01-05T16:45:00.099Z,6.35
2024-01-05T16:47:26.769Z,3.15
2024-01-05T16:49:53.397Z,1.40
2024-01-05T16:52:20.215Z,6.93
2024-01-05T16:54:46.699Z,1.98
2024-01-05T16:57:13.246Z,7.03
2024-01-05T16:59:40.642Z,6.18
2024-01-05T17:02:08.700Z,1.33
2024-01-05T17:04:35.228Z,1.73
2024-01-05T17:07:01.822Z,1.73
2024-01-05T17:09:28.402Z,7.18
2024-01-05T17:11:57.985Z,9.77
2024-01-05T17:14:24.922Z,1.60
2024-01-05T17:16:51.428Z,1.98
2024-01-05T17:19:18.096Z,28.35
2024-01-05T17:21:44.898Z,10.77
2024-01-05T17:24:11.475Z,16.63
2024-01-05T17:26:39.653Z,23.83
2024-01-05T17:29:06.808Z,20.60
2024-01-05T17:31:33.441Z,15.65
2024-01-05T17:34:00.356Z,25.02
2024-01-05T17:36:28.305Z,9.68
2024-01-05T17:38:56.053Z,17.25
2024-01-05T17:41:22.586Z,19.58
2024-01-05T17:43:49.249Z,17.05
2024-01-05T17:46:15.675Z,15.75
2024-01-05T17:48:43.433Z,3.35
2024-01-05T17:51:10.431Z,24.27
2024-01-05T17:53:39.419Z,3.88
2024-01-05T17:56:06.672Z,17.60
2024-01-05T17:58:33.202Z,21.45
2024-01-05T18:00:59.727Z,17.10
2024-01-05T18:03:28.149Z,9.35
2024-01-05T18:05:54.800Z,8.95
2024-01-05T18:08:21.221Z,19.08
2024-01-05T18:10:47.590Z,10.55
2024-01-05T18:13:15.254Z,9.90
2024-01-05T18:15:41.900Z,5.50
2024-01-05T18:18:09.042Z,7.25
2024-01-05T18:20:35.568Z,16.73
2024-01-05T18:23:02.432Z,19.05
2024-01-05T18:25:31.266Z,8.05
2024-01-05T18:28:01.215Z,15.32
2024-01-05T18:30:27.982Z,7.15
2024-01-05T18:32:54.423Z,17.30
2024-01-05T18:35:21.038Z,12.15
2024-01-05T18:37:47.465Z,6.55
2024-01-05T18:40:13.916Z,9.27
2024-01-05T18:42:40.834Z,17.48
2024-01-05T18:45:07.582Z,25.75
2024-01-05T18:47:34.130Z,17.45
2024-01-05T18:50:00.659Z,9.45
2024-01-05T18:52:27.110Z,6.35
2024-01-05T18:54:53.711Z,4.93
2024-01-05T18:57:20.216Z,8.50
2024-01-05T18:59:46.678Z,5.80
2024-01-05T19:02:13.130Z,4.45
2024-01-05T19:04:40.405Z,6.30
2024-01-05T19:07:07.400Z,7.13
2024-01-05T19:09:33.887Z,11.05
2024-01-05T19:12:00.304Z,6.32
2024-01-05T19:14:26.809Z,6.13
2024-01-05T19:16:53.256Z,12.68
2024-01-05T19:19:20.899Z,10.32
2024-01-05T19:21:55.562Z,14.95
2024-01-05T19:24:24.523Z,16.20
2024-01-05T19:26:52.189Z,21.48
2024-01-05T19:29:18.688Z,13.15
2024-01-05T19:31:45.238Z,11.32
2024-01-05T19:34:12.970Z,11.27
2024-01-05T19:36:44.436Z,16.00
2024-01-05T19:39:12.090Z,10.25
2024-01-05T19:41:43.438Z,9.65
2024-01-05T19:44:09.989Z,6.10
2024-01-05T19:46:36.744Z,5.70
2024-01-05T19:49:03.347Z,5.95
2024-01-05T19:51:29.907Z,9.45
2024-01-05T19:53:56.659Z,9.35
2024-01-05T19:56:23.046Z,9.73
2024-01-05T19:58:50.982Z,10.68
2024-01-05T20:01:18.163Z,8.40
2024-01-05T20:03:44.969Z,15.60
2024-01-05T20:06:13.090Z,14.90
2024-01-05T20:08:39.641Z,6.53
2024-01-05T20:11:09.705Z,7.40
2024-01-05T20:13:36.122Z,6.65
2024-01-05T20:16:02.617Z,7.60
2024-01-05T20:18:29.185Z,5.18
2024-01-05T20:20:55.691Z,11.70
2024-01-05T20:23:22.073Z,6.88
2024-01-05T20:25:48.539Z,7.07
2024-01-05T20:28:14.988Z,6.93
2024-01-05T20:30:43.964Z,8.13
2024-01-05T20:33:10.660Z,8.55
2024-01-05T20:35:37.494Z,6.30
2024-01-05T20:38:04.622Z,6.90
2024-01-05T20:40:31.093Z,5.32
2024-01-05T20:42:59.807Z,7.45
2024-01-05T20:45:26.305Z,5.93
2024-01-05T20:47:52.812Z,5.10
2024-01-05T20:50:19.357Z,7.80
2024-01-05T20:52:45.846Z,6.18
2024-01-05T20:55:12.281Z,7.35
2024-01-05T20:57:38.901Z,8.15
2024-01-05T21:00:06.676Z,5.57
2024-01-05T21:02:33.283Z,9.15
2024-01-05T21:04:59.824Z,6.97
2024-01-05T21:07:26.644Z,9.90
2024-01-05T21:09:53.194Z,7.22
2024-01-05T21:12:20.507Z,7.47
2024-01-05T21:14:47.567Z,6.18
2024-01-05T21:17:13.981Z,7.10
2024-01-05T21:19:41.232Z,5.30
2024-01-05T21:22:08.183Z,5.63
2024-01-05T21:24:40.359Z,6.07
2024-01-05T21:27:06.866Z,6.05
2024-01-05T21:29:33.374Z,5.80
2024-01-05T21:31:59.842Z,5.22
2024-01-05T21:34:26.319Z,4.88
2024-01-05T21:36:52.843Z,3.33
2024-01-05T21:39:19.344Z,3.47
2024-01-05T21:41:47.690Z,4.10
2024-01-05T21:44:14.782Z,3.80
2024-01-05T21:46:41.323Z,2.50
2024-01-05T21:49:09.588Z,1.90
2024-01-05T21:51:37.045Z,2.03
2024-01-05T21:54:03.545Z,2.50
2024-01-05T21:56:30.024Z,1.92
2024-01-05T21:58:56.549Z,3.53
2024-01-05T22:01:23.403Z,4.90
2024-01-05T22:03:49.962Z,4.53
2024-01-05T22:06:16.558Z,4.72
2024-01-05T22:08:43.065Z,4.30
2024-01-05T22:11:09.690Z,6.10
2024-01-05T22:13:36.609Z,4.10
2024-01-05T22:16:03.819Z,3.38
2024-01-05T22:18:32.767Z,4.63
2024-01-05T22:21:00.610Z,2.83
2024-01-05T22:23:27.072Z,4.05
2024-01-05T22:25:53.566Z,3.83
2024-01-05T22:28:19.961Z,3.70
2024-01-05T22:30:46.497Z,2.33
2024-01-05T22:33:13.057Z,4.30
2024-01-05T22:35:39.550Z,3.08
2024-01-05T22:38:06.036Z,4.35
2024-01-05T22:40:32.513Z,3.38
2024-01-05T22:42:58.945Z,4.57
2024-01-05T22:45:25.419Z,2.78
2024-01-05T22:47:52.569Z,3.13
2024-01-05T22:50:19.429Z,4.00
2024-01-05T22:52:45.925Z,3.28
2024-01-05T22:55:12.495Z,3.45
2024-01-05T22:57:39.179Z,3.83
2024-01-05T23:00:13.614Z,2.72
2024-01-05T23:02:40.106Z,2.35
2024-01-05T23:05:06.677Z,3.80
2024-01-05T23:07:33.338Z,3.30
2024-01-05T23:09:59.925Z,4.25
2024-01-05T23:12:27.884Z,3.33
2024-01-05T23:14:54.509Z,3.85
2024-01-05T23:17:20.941Z,3.95
2024-01-05T23:19:47.543Z,3.92
2024-01-05T23:22:13.975Z,4.03
2024-01-05T23:24:40.896Z,4.28
2024-01-05T23:27:07.807Z,4.28
2024-01-05T23:29:34.494Z,4.55
2024-01-05T23:32:00.913Z,3.97
2024-01-05T23:34:27.561Z,3.28
2024-01-05T23:36:55.137Z,3.20
2024-01-05T23:39:21.664Z,2.47
2024-01-05T23:41:48.133Z,2.35
2024-01-05T23:44:14.570Z,2.85
2024-01-05T23:46:40.993Z,4.43
2024-01-05T23:49:07.673Z,4.05
2024-01-05T23:51:34.285Z,4.88
2024-01-05T23:54:00.757Z,3.97
2024-01-05T23:56:28.289Z,3.85
2024-01-05T23:58:54.834Z,3.20
